sensor_id;sensor_type;location;lat;lon;timestamp;pressure;altitude;pressure_sealevel;temperature;humidity
65659;BME280;60181;53.258;6.932;2024-01-15T00:00:59;99958.23;;;14.27;60.64
65659;BME280;60181;53.258;6.932;2024-01-15T00:05:11;99957.75;;;14.27;60.78
65659;BME280;60181;53.258;6.932;2024-01-15T00:09:23;99956.52;;;14.26;60.91
65659;BME280;60181;53.258;6.932;2024-01-15T00:13:35;99949.59;;;14.26;60.68
65659;BME280;60181;53.258;6.932;2024-01-15T00:17:47;99941.58;;;14.26;60.76
65659;BME280;60181;53.258;6.932;2024-01-15T00:21:59;99933.11;;;14.26;60.77
65659;BME280;60181;53.258;6.932;2024-01-15T00:26:11;99925.86;;;14.26;60.64
65659;BME280;60181;53.258;6.932;2024-01-15T00:30:23;99917.88;;;14.26;60.70
65659;BME280;60181;53.258;6.932;2024-01-15T00:34:35;99910.22;;;14.25;60.51
65659;BME280;60181;53.258;6.932;2024-01-15T00:38:47;99901.87;;;14.25;60.51
65659;BME280;60181;53.258;6.932;2024-01-15T00:42:59;99892.91;;;14.25;60.49
65659;BME280;60181;53.258;6.932;2024-01-15T00:47:11;99884.59;;;14.25;60.55
65659;BME280;60181;53.258;6.932;2024-01-15T00:51:23;99877.11;;;14.24;60.87
65659;BME280;60181;53.258;6.932;2024-01-15T00:55:35;99870.74;;;14.24;61.03
65659;BME280;60181;53.258;6.932;2024-01-15T00:59:47;99867.05;;;14.24;60.99
65659;BME280;60181;53.258;6.932;2024-01-15T01:03:59;99864.09;;;14.23;60.82
65659;BME280;60181;53.258;6.932;2024-01-15T01:08:11;99861.11;;;14.23;60.90
65659;BME280;60181;53.258;6.932;2024-01-15T01:12:23;99859.96;;;14.23;61.15
65659;BME280;60181;53.258;6.932;2024-01-15T01:16:35;99858.50;;;14.22;61.24
65659;BME280;60181;53.258;6.932;2024-01-15T01:20:47;99857.15;;;14.22;61.15
65659;BME280;60181;53.258;6.932;2024-01-15T01:24:59;99855.86;;;14.21;61.06
65659;BME280;60181;53.258;6.932;2024-01-15T01:29:11;99856.17;;;14.21;61.16
65659;BME280;60181;53.258;6.932;2024-01-15T01:33:23;99854.36;;;14.21;61.51
65659;BME280;60181;53.258;6.932;2024-01-15T01:37:35;99850.99;;;14.20;61.78
65659;BME280;60181;53.258;6.932;2024-01-15T01:41:47;99844.75;;;14.20;62.03
65659;BME280;60181;53.258;6.932;2024-01-15T01:46:00;99838.47;;;14.19;62.04
65659;BME280;60181;53.258;6.932;2024-01-15T01:50:11;99834.12;;;14.19;62.08
65659;BME280;60181;53.258;6.932;2024-01-15T01:54:24;99829.83;;;14.18;62.08
65659;BME280;60181;53.258;6.932;2024-01-15T01:58:35;99827.04;;;14.18;62.16
65659;BME280;60181;53.258;6.932;2024-01-15T02:02:47;99823.91;;;14.17;62.18
65659;BME280;60181;53.258;6.932;2024-01-15T02:07:00;99820.95;;;14.17;62.21
65659;BME280;60181;53.258;6.932;2024-01-15T02:11:11;99822.58;;;14.16;62.16
65659;BME280;60181;53.258;6.932;2024-01-15T02:15:23;99823.52;;;14.15;62.17
65659;BME280;60181;53.258;6.932;2024-01-15T02:19:35;99823.60;;;14.15;62.12
65659;BME280;60181;53.258;6.932;2024-01-15T02:23:47;99824.98;;;14.14;62.04
65659;BME280;60181;53.258;6.932;2024-01-15T02:27:59;99824.89;;;14.13;61.98
65659;BME280;60181;53.258;6.932;2024-01-15T02:32:11;99823.52;;;14.12;61.94
65659;BME280;60181;53.258;6.932;2024-01-15T02:36:23;99821.28;;;14.11;61.90
65659;BME280;60181;53.258;6.932;2024-01-15T02:40:35;99819.22;;;14.11;61.89
65659;BME280;60181;53.258;6.932;2024-01-15T02:44:47;99817.83;;;14.10;61.92
65659;BME280;60181;53.258;6.932;2024-01-15T02:48:59;99819.89;;;14.09;61.97
65659;BME280;60181;53.258;6.932;2024-01-15T02:53:11;99820.56;;;14.09;61.80
65659;BME280;60181;53.258;6.932;2024-01-15T02:57:23;99822.44;;;14.08;61.94
65659;BME280;60181;53.258;6.932;2024-01-15T03:01:35;99822.28;;;14.08;62.08
65659;BME280;60181;53.258;6.932;2024-01-15T03:05:47;99823.36;;;14.08;62.04
65659;BME280;60181;53.258;6.932;2024-01-15T03:09:59;99824.33;;;14.07;62.10
65659;BME280;60181;53.258;6.932;2024-01-15T03:14:11;99826.65;;;14.07;62.14
65659;BME280;60181;53.258;6.932;2024-01-15T03:18:23;99829.36;;;14.06;62.00
65659;BME280;60181;53.258;6.932;2024-01-15T03:22:35;99834.16;;;14.05;62.07
65659;BME280;60181;53.258;6.932;2024-01-15T03:26:47;99837.45;;;14.04;62.12
65659;BME280;60181;53.258;6.932;2024-01-15T03:30:59;99839.83;;;14.03;62.18
65659;BME280;60181;53.258;6.932;2024-01-15T03:35:11;99841.13;;;14.03;62.13
65659;BME280;60181;53.258;6.932;2024-01-15T03:39:23;99841.31;;;14.02;62.09
65659;BME280;60181;53.258;6.932;2024-01-15T03:43:35;99841.22;;;14.02;62.13
65659;BME280;60181;53.258;6.932;2024-01-15T03:47:47;99840.66;;;14.01;62.19
65659;BME280;60181;53.258;6.932;2024-01-15T03:51:59;99839.75;;;14.00;62.20
65659;BME280;60181;53.258;6.932;2024-01-15T03:56:11;99839.17;;;13.99;62.22
65659;BME280;60181;53.258;6.932;2024-01-15T04:00:23;99838.19;;;13.99;62.25
65659;BME280;60181;53.258;6.932;2024-01-15T04:04:35;99837.28;;;13.98;62.19
65659;BME280;60181;53.258;6.932;2024-01-15T04:08:47;99835.80;;;13.97;62.22
65659;BME280;60181;53.258;6.932;2024-01-15T04:12:59;99836.53;;;13.96;62.26
65659;BME280;60181;53.258;6.932;2024-01-15T04:17:11;99836.19;;;13.95;62.20
65659;BME280;60181;53.258;6.932;2024-01-15T04:21:23;99834.33;;;13.94;62.19
65659;BME280;60181;53.258;6.932;2024-01-15T04:25:35;99831.53;;;13.93;62.17
65659;BME280;60181;53.258;6.932;2024-01-15T04:29:47;99827.32;;;13.93;62.15
65659;BME280;60181;53.258;6.932;2024-01-15T04:33:59;99826.90;;;13.92;62.20
65659;BME280;60181;53.258;6.932;2024-01-15T04:38:11;99830.06;;;13.91;62.14
65659;BME280;60181;53.258;6.932;2024-01-15T04:42:23;99830.46;;;13.90;62.33
65659;BME280;60181;53.258;6.932;2024-01-15T04:46:35;99827.83;;;13.89;62.40
65659;BME280;60181;53.258;6.932;2024-01-15T04:50:47;99826.75;;;13.88;62.47
65659;BME280;60181;53.258;6.932;2024-01-15T04:54:59;99828.32;;;13.88;62.39
65659;BME280;60181;53.258;6.932;2024-01-15T04:59:11;99834.00;;;13.88;62.44
65659;BME280;60181;53.258;6.932;2024-01-15T05:03:23;99834.75;;;13.87;62.66
65659;BME280;60181;53.258;6.932;2024-01-15T05:07:35;99833.42;;;13.87;62.54
65659;BME280;60181;53.258;6.932;2024-01-15T05:11:47;99832.12;;;13.86;62.73
65659;BME280;60181;53.258;6.932;2024-01-15T05:15:59;99829.38;;;13.85;62.82
65659;BME280;60181;53.258;6.932;2024-01-15T05:20:11;99829.63;;;13.84;62.81
65659;BME280;60181;53.258;6.932;2024-01-15T05:24:23;99833.59;;;13.82;62.93
65659;BME280;60181;53.258;6.932;2024-01-15T05:28:35;99835.16;;;13.81;62.78
65659;BME280;60181;53.258;6.932;2024-01-15T05:32:47;99834.50;;;13.80;62.71
65659;BME280;60181;53.258;6.932;2024-01-15T05:36:59;99830.97;;;13.79;62.72
65659;BME280;60181;53.258;6.932;2024-01-15T05:41:11;99827.34;;;13.78;62.62
65659;BME280;60181;53.258;6.932;2024-01-15T05:45:23;99824.30;;;13.77;62.54
65659;BME280;60181;53.258;6.932;2024-01-15T05:49:35;99820.90;;;13.76;62.52
65659;BME280;60181;53.258;6.932;2024-01-15T05:53:47;99816.90;;;13.75;62.49
65659;BME280;60181;53.258;6.932;2024-01-15T05:57:59;99811.96;;;13.74;62.48
65659;BME280;60181;53.258;6.932;2024-01-15T06:02:11;99807.75;;;13.73;62.42
65659;BME280;60181;53.258;6.932;2024-01-15T06:06:23;99804.79;;;13.72;62.40
65659;BME280;60181;53.258;6.932;2024-01-15T06:10:35;99803.38;;;13.72;62.23
65659;BME280;60181;53.258;6.932;2024-01-15T06:14:47;99803.49;;;13.71;62.18
65659;BME280;60181;53.258;6.932;2024-01-15T06:18:59;99803.16;;;13.70;62.10
65659;BME280;60181;53.258;6.932;2024-01-15T06:23:11;99803.39;;;13.69;62.15
65659;BME280;60181;53.258;6.932;2024-01-15T06:27:23;99801.82;;;13.68;62.10
65659;BME280;60181;53.258;6.932;2024-01-15T06:31:35;99800.17;;;13.67;62.08
65659;BME280;60181;53.258;6.932;2024-01-15T06:35:47;99798.22;;;13.66;62.00
65659;BME280;60181;53.258;6.932;2024-01-15T06:39:59;99797.55;;;13.66;61.97
65659;BME280;60181;53.258;6.932;2024-01-15T06:44:11;99798.88;;;13.65;61.89
65659;BME280;60181;53.258;6.932;2024-01-15T06:48:23;99804.22;;;13.64;61.92
65659;BME280;60181;53.258;6.932;2024-01-15T06:52:35;99809.89;;;13.64;61.89
65659;BME280;60181;53.258;6.932;2024-01-15T06:56:47;99812.61;;;13.63;62.01
65659;BME280;60181;53.258;6.932;2024-01-15T07:00:59;99812.59;;;13.63;61.93
65659;BME280;60181;53.258;6.932;2024-01-15T07:05:11;99812.28;;;13.62;61.12
65659;BME280;60181;53.258;6.932;2024-01-15T07:09:23;99810.47;;;13.63;61.15
65659;BME280;60181;53.258;6.932;2024-01-15T07:13:38;99808.83;;;13.64;61.22
65659;BME280;60181;53.258;6.932;2024-01-15T07:17:47;99807.00;;;13.65;61.39
65659;BME280;60181;53.258;6.932;2024-01-15T07:21:59;99806.93;;;13.65;61.42
65659;BME280;60181;53.258;6.932;2024-01-15T07:26:11;99805.47;;;13.64;61.49
65659;BME280;60181;53.258;6.932;2024-01-15T07:30:23;99802.72;;;13.63;61.56
65659;BME280;60181;53.258;6.932;2024-01-15T07:34:35;99801.59;;;13.62;61.54
65659;BME280;60181;53.258;6.932;2024-01-15T07:38:47;99800.94;;;13.61;61.58
65659;BME280;60181;53.258;6.932;2024-01-15T07:42:59;99800.67;;;13.59;61.58
65659;BME280;60181;53.258;6.932;2024-01-15T07:47:11;99799.70;;;13.58;61.64
65659;BME280;60181;53.258;6.932;2024-01-15T07:51:23;99797.74;;;13.57;61.65
65659;BME280;60181;53.258;6.932;2024-01-15T07:55:35;99795.59;;;13.56;61.64
65659;BME280;60181;53.258;6.932;2024-01-15T07:59:47;99795.09;;;13.55;61.65
65659;BME280;60181;53.258;6.932;2024-01-15T08:03:59;99795.59;;;13.54;61.74
65659;BME280;60181;53.258;6.932;2024-01-15T08:08:11;99795.92;;;13.53;61.72
65659;BME280;60181;53.258;6.932;2024-01-15T08:12:23;99797.80;;;13.52;61.71
65659;BME280;60181;53.258;6.932;2024-01-15T08:16:35;99796.83;;;13.52;61.71
65659;BME280;60181;53.258;6.932;2024-01-15T08:20:47;99795.59;;;13.52;61.65
65659;BME280;60181;53.258;6.932;2024-01-15T08:24:59;99794.01;;;13.51;61.60
65659;BME280;60181;53.258;6.932;2024-01-15T08:29:11;99794.76;;;13.52;61.52
65659;BME280;60181;53.258;6.932;2024-01-15T08:33:23;99795.65;;;13.54;61.49
65659;BME280;60181;53.258;6.932;2024-01-15T08:37:35;99794.09;;;13.55;61.52
65659;BME280;60181;53.258;6.932;2024-01-15T08:41:47;99792.85;;;13.56;61.49
65659;BME280;60181;53.258;6.932;2024-01-15T08:45:59;99791.88;;;13.58;61.44
65659;BME280;60181;53.258;6.932;2024-01-15T08:50:11;99792.05;;;13.59;61.46
65659;BME280;60181;53.258;6.932;2024-01-15T08:54:23;99792.55;;;13.60;61.46
65659;BME280;60181;53.258;6.932;2024-01-15T08:58:35;99792.63;;;13.60;61.51
65659;BME280;60181;53.258;6.932;2024-01-15T09:02:47;99793.11;;;13.60;61.51
65659;BME280;60181;53.258;6.932;2024-01-15T09:06:59;99793.44;;;13.60;61.57
65659;BME280;60181;53.258;6.932;2024-01-15T09:11:11;99795.25;;;13.60;61.57
65659;BME280;60181;53.258;6.932;2024-01-15T09:15:23;99795.65;;;13.60;61.60
65659;BME280;60181;53.258;6.932;2024-01-15T09:19:35;99794.34;;;13.60;61.60
65659;BME280;60181;53.258;6.932;2024-01-15T09:23:47;99794.43;;;13.60;61.62
65659;BME280;60181;53.258;6.932;2024-01-15T09:27:59;99796.90;;;13.60;61.58
65659;BME280;60181;53.258;6.932;2024-01-15T09:32:11;99801.99;;;13.65;62.26
65659;BME280;60181;53.258;6.932;2024-01-15T09:36:23;99807.24;;;13.74;61.69
65659;BME280;60181;53.258;6.932;2024-01-15T09:40:35;99807.59;;;13.79;62.04
65659;BME280;60181;53.258;6.932;2024-01-15T09:44:47;99805.45;;;13.80;62.18
65659;BME280;60181;53.258;6.932;2024-01-15T09:48:59;99801.67;;;13.79;62.22
65659;BME280;60181;53.258;6.932;2024-01-15T09:53:11;99798.44;;;13.77;62.17
65659;BME280;60181;53.258;6.932;2024-01-15T09:57:23;99795.72;;;13.76;62.10
65659;BME280;60181;53.258;6.932;2024-01-15T10:01:35;99795.01;;;13.75;61.99
65659;BME280;60181;53.258;6.932;2024-01-15T10:05:47;99796.56;;;13.74;62.06
65659;BME280;60181;53.258;6.932;2024-01-15T10:09:59;99798.61;;;13.73;62.14
65659;BME280;60181;53.258;6.932;2024-01-15T10:14:11;99800.36;;;13.71;62.25
65659;BME280;60181;53.258;6.932;2024-01-15T10:18:23;99801.49;;;13.69;62.21
65659;BME280;60181;53.258;6.932;2024-01-15T10:22:35;99801.98;;;13.68;62.12
65659;BME280;60181;53.258;6.932;2024-01-15T10:26:47;99801.48;;;13.67;62.10
65659;BME280;60181;53.258;6.932;2024-01-15T10:30:59;99799.69;;;13.67;62.09
65659;BME280;60181;53.258;6.932;2024-01-15T10:35:11;99798.71;;;13.68;61.86
65659;BME280;60181;53.258;6.932;2024-01-15T10:39:23;99796.15;;;13.69;61.80
65659;BME280;60181;53.258;6.932;2024-01-15T10:43:35;99795.40;;;13.71;61.68
65659;BME280;60181;53.258;6.932;2024-01-15T10:47:47;99794.51;;;13.71;61.99
65659;BME280;60181;53.258;6.932;2024-01-15T10:51:59;99794.75;;;13.70;62.10
65659;BME280;60181;53.258;6.932;2024-01-15T10:56:11;99796.41;;;13.70;62.10
65659;BME280;60181;53.258;6.932;2024-01-15T11:00:23;99797.31;;;13.70;62.13
65659;BME280;60181;53.258;6.932;2024-01-15T11:04:35;99796.66;;;13.70;62.06
65659;BME280;60181;53.258;6.932;2024-01-15T11:08:49;99796.73;;;13.70;62.05
65659;BME280;60181;53.258;6.932;2024-01-15T11:12:59;99796.41;;;13.70;62.00
65659;BME280;60181;53.258;6.932;2024-01-15T11:17:11;99795.64;;;13.71;61.92
65659;BME280;60181;53.258;6.932;2024-01-15T11:21:23;99794.02;;;13.71;61.96
65659;BME280;60181;53.258;6.932;2024-01-15T11:25:35;99793.17;;;13.72;61.94
65659;BME280;60181;53.258;6.932;2024-01-15T11:29:46;99793.17;;;13.73;61.84
65659;BME280;60181;53.258;6.932;2024-01-15T11:33:58;99794.83;;;13.74;62.00
65659;BME280;60181;53.258;6.932;2024-01-15T11:38:10;99797.14;;;13.73;62.17
65659;BME280;60181;53.258;6.932;2024-01-15T11:42:23;99796.72;;;13.72;62.19
65659;BME280;60181;53.258;6.932;2024-01-15T11:46:35;99796.72;;;13.72;62.14
65659;BME280;60181;53.258;6.932;2024-01-15T11:50:47;99798.72;;;13.73;62.07
65659;BME280;60181;53.258;6.932;2024-01-15T11:55:06;99801.58;;;13.74;62.04
65659;BME280;60181;53.258;6.932;2024-01-15T11:59:10;99803.96;;;13.74;62.07
65659;BME280;60181;53.258;6.932;2024-01-15T12:03:23;99807.09;;;13.74;62.09
65659;BME280;60181;53.258;6.932;2024-01-15T12:07:35;99809.39;;;13.76;61.92
65659;BME280;60181;53.258;6.932;2024-01-15T12:11:47;99811.11;;;13.78;61.74
65659;BME280;60181;53.258;6.932;2024-01-15T12:15:59;99813.34;;;13.81;61.71
65659;BME280;60181;53.258;6.932;2024-01-15T12:20:11;99816.13;;;13.82;61.97
65659;BME280;60181;53.258;6.932;2024-01-15T12:24:22;99817.11;;;13.82;62.00
65659;BME280;60181;53.258;6.932;2024-01-15T12:28:34;99821.23;;;13.82;62.02
65659;BME280;60181;53.258;6.932;2024-01-15T12:32:46;99827.08;;;13.81;62.04
65659;BME280;60181;53.258;6.932;2024-01-15T12:36:58;99832.51;;;13.81;62.05
65659;BME280;60181;53.258;6.932;2024-01-15T12:41:10;99837.47;;;13.82;62.01
65659;BME280;60181;53.258;6.932;2024-01-15T12:45:23;99842.16;;;13.83;61.92
65659;BME280;60181;53.258;6.932;2024-01-15T12:49:36;99847.67;;;13.85;61.85
65659;BME280;60181;53.258;6.932;2024-01-15T12:53:46;99851.26;;;13.85;61.91
65659;BME280;60181;53.258;6.932;2024-01-15T12:57:58;99854.74;;;13.85;61.99
65659;BME280;60181;53.258;6.932;2024-01-15T13:02:13;99859.10;;;13.85;62.05
65659;BME280;60181;53.258;6.932;2024-01-15T13:06:22;99862.57;;;13.84;62.11
65659;BME280;60181;53.258;6.932;2024-01-15T13:10:34;99865.19;;;13.84;62.13
65659;BME280;60181;53.258;6.932;2024-01-15T13:14:46;99868.50;;;13.83;62.13
65659;BME280;60181;53.258;6.932;2024-01-15T13:18:58;99872.03;;;13.83;62.07
65659;BME280;60181;53.258;6.932;2024-01-15T13:23:10;99876.15;;;13.84;62.03
65659;BME280;60181;53.258;6.932;2024-01-15T13:27:22;99879.85;;;13.84;62.09
65659;BME280;60181;53.258;6.932;2024-01-15T13:31:34;99883.81;;;13.84;62.02
65659;BME280;60181;53.258;6.932;2024-01-15T13:35:46;99888.51;;;13.84;62.21
65659;BME280;60181;53.258;6.932;2024-01-15T13:39:58;99893.84;;;13.83;62.23
65659;BME280;60181;53.258;6.932;2024-01-15T13:44:10;99899.19;;;13.82;62.30
65659;BME280;60181;53.258;6.932;2024-01-15T13:48:22;99906.78;;;13.82;62.34
65659;BME280;60181;53.258;6.932;2024-01-15T13:52:34;99918.05;;;13.81;62.28
65659;BME280;60181;53.258;6.932;2024-01-15T13:56:46;99927.09;;;13.80;62.26
65659;BME280;60181;53.258;6.932;2024-01-15T14:00:59;99936.49;;;13.80;62.32
65659;BME280;60181;53.258;6.932;2024-01-15T14:05:11;99944.95;;;13.79;62.36
65659;BME280;60181;53.258;6.932;2024-01-15T14:09:22;99949.73;;;13.78;62.47
65659;BME280;60181;53.258;6.932;2024-01-15T14:13:34;99951.45;;;13.77;62.51
65659;BME280;60181;53.258;6.932;2024-01-15T14:17:46;99953.03;;;13.76;62.50
65659;BME280;60181;53.258;6.932;2024-01-15T14:21:58;99955.56;;;13.76;62.52
65659;BME280;60181;53.258;6.932;2024-01-15T14:26:10;99957.45;;;13.76;62.43
65659;BME280;60181;53.258;6.932;2024-01-15T14:30:22;99960.50;;;13.76;62.46
65659;BME280;60181;53.258;6.932;2024-01-15T14:34:34;99963.30;;;13.76;62.52
65659;BME280;60181;53.258;6.932;2024-01-15T14:38:46;99966.75;;;13.76;62.52
65659;BME280;60181;53.258;6.932;2024-01-15T14:42:58;99969.89;;;13.75;62.55
65659;BME280;60181;53.258;6.932;2024-01-15T14:47:10;99974.27;;;13.75;62.61
65659;BME280;60181;53.258;6.932;2024-01-15T14:51:22;99977.45;;;13.75;62.55
65659;BME280;60181;53.258;6.932;2024-01-15T14:55:34;99978.11;;;13.75;62.56
65659;BME280;60181;53.258;6.932;2024-01-15T14:59:46;99979.27;;;13.74;62.60
65659;BME280;60181;53.258;6.932;2024-01-15T15:03:58;99983.54;;;13.74;62.59
65659;BME280;60181;53.258;6.932;2024-01-15T15:08:10;99987.16;;;13.74;62.63
65659;BME280;60181;53.258;6.932;2024-01-15T15:12:22;99994.98;;;13.74;62.69
65659;BME280;60181;53.258;6.932;2024-01-15T15:16:34;100001.65;;;13.73;62.65
65659;BME280;60181;53.258;6.932;2024-01-15T15:20:46;100006.01;;;13.74;62.63
65659;BME280;60181;53.258;6.932;2024-01-15T15:24:58;100009.06;;;13.73;62.62
65659;BME280;60181;53.258;6.932;2024-01-15T15:29:10;100011.86;;;13.78;63.33
65659;BME280;60181;53.258;6.932;2024-01-15T15:33:22;100015.34;;;13.82;62.77
65659;BME280;60181;53.258;6.932;2024-01-15T15:37:34;100018.46;;;13.84;62.92
65659;BME280;60181;53.258;6.932;2024-01-15T15:41:46;100019.79;;;13.83;63.11
65659;BME280;60181;53.258;6.932;2024-01-15T15:45:58;100023.32;;;13.82;63.13
65659;BME280;60181;53.258;6.932;2024-01-15T15:50:10;100026.70;;;13.81;63.09
65659;BME280;60181;53.258;6.932;2024-01-15T15:54:22;100029.66;;;13.80;63.06
65659;BME280;60181;53.258;6.932;2024-01-15T15:58:34;100037.64;;;13.79;63.11
65659;BME280;60181;53.258;6.932;2024-01-15T16:02:46;100042.83;;;13.78;63.09
65659;BME280;60181;53.258;6.932;2024-01-15T16:06:58;100049.97;;;13.77;63.03
65659;BME280;60181;53.258;6.932;2024-01-15T16:11:10;100052.84;;;13.76;63.07
65659;BME280;60181;53.258;6.932;2024-01-15T16:15:22;100055.08;;;13.75;62.94
65659;BME280;60181;53.258;6.932;2024-01-15T16:19:34;100057.28;;;13.75;62.96
65659;BME280;60181;53.258;6.932;2024-01-15T16:23:46;100061.16;;;13.75;62.96
65659;BME280;60181;53.258;6.932;2024-01-15T16:27:58;100065.46;;;13.76;62.87
65659;BME280;60181;53.258;6.932;2024-01-15T16:32:10;100069.56;;;13.78;62.81
65659;BME280;60181;53.258;6.932;2024-01-15T16:36:22;100070.23;;;13.78;62.23
65659;BME280;60181;53.258;6.932;2024-01-15T16:40:34;100073.21;;;13.76;61.85
65659;BME280;60181;53.258;6.932;2024-01-15T16:44:46;100076.96;;;13.75;61.66
65659;BME280;60181;53.258;6.932;2024-01-15T16:48:58;100080.74;;;13.73;61.44
65659;BME280;60181;53.258;6.932;2024-01-15T16:53:10;100086.10;;;13.71;61.23
65659;BME280;60181;53.258;6.932;2024-01-15T16:57:22;100092.91;;;13.69;61.07
65659;BME280;60181;53.258;6.932;2024-01-15T17:01:34;100103.85;;;13.68;61.30
65659;BME280;60181;53.258;6.932;2024-01-15T17:05:46;100113.48;;;13.67;61.72
65659;BME280;60181;53.258;6.932;2024-01-15T17:09:58;100121.45;;;13.67;61.79
65659;BME280;60181;53.258;6.932;2024-01-15T17:14:10;100128.30;;;13.67;61.88
65659;BME280;60181;53.258;6.932;2024-01-15T17:18:22;100132.33;;;13.68;61.88
65659;BME280;60181;53.258;6.932;2024-01-15T17:22:34;100135.13;;;13.68;61.94
65659;BME280;60181;53.258;6.932;2024-01-15T17:26:46;100139.90;;;13.68;61.95
65659;BME280;60181;53.258;6.932;2024-01-15T17:30:58;100145.73;;;13.68;62.01
65659;BME280;60181;53.258;6.932;2024-01-15T17:35:10;100151.40;;;13.68;62.07
65659;BME280;60181;53.258;6.932;2024-01-15T17:39:22;100158.67;;;13.69;62.12
65659;BME280;60181;53.258;6.932;2024-01-15T17:43:34;100167.33;;;13.70;62.19
65659;BME280;60181;53.258;6.932;2024-01-15T17:47:46;100173.75;;;13.70;62.19
65659;BME280;60181;53.258;6.932;2024-01-15T17:51:58;100179.91;;;13.70;62.20
65659;BME280;60181;53.258;6.932;2024-01-15T17:56:10;100184.11;;;13.70;62.23
65659;BME280;60181;53.258;6.932;2024-01-15T18:00:22;100187.80;;;13.70;62.26
65659;BME280;60181;53.258;6.932;2024-01-15T18:04:34;100191.83;;;13.71;62.23
65659;BME280;60181;53.258;6.932;2024-01-15T18:08:49;100195.31;;;13.71;62.25
65659;BME280;60181;53.258;6.932;2024-01-15T18:12:58;100197.77;;;13.71;62.26
65659;BME280;60181;53.258;6.932;2024-01-15T18:17:10;100199.17;;;13.71;62.29
65659;BME280;60181;53.258;6.932;2024-01-15T18:21:22;100201.72;;;13.72;62.30
65659;BME280;60181;53.258;6.932;2024-01-15T18:25:34;100204.67;;;13.72;62.31
65659;BME280;60181;53.258;6.932;2024-01-15T18:29:46;100209.78;;;13.72;62.33
65659;BME280;60181;53.258;6.932;2024-01-15T18:33:58;100215.21;;;13.72;62.34
65659;BME280;60181;53.258;6.932;2024-01-15T18:38:10;100220.64;;;13.72;62.36
65659;BME280;60181;53.258;6.932;2024-01-15T18:42:22;100226.84;;;13.72;62.36
65659;BME280;60181;53.258;6.932;2024-01-15T18:46:34;100231.95;;;13.72;62.38
65659;BME280;60181;53.258;6.932;2024-01-15T18:50:46;100237.27;;;13.72;62.42
65659;BME280;60181;53.258;6.932;2024-01-15T18:54:58;100244.60;;;13.71;62.47
65659;BME280;60181;53.258;6.932;2024-01-15T18:59:10;100251.84;;;13.71;62.46
65659;BME280;60181;53.258;6.932;2024-01-15T19:03:22;100258.42;;;13.71;62.47
65659;BME280;60181;53.258;6.932;2024-01-15T19:07:34;100264.61;;;13.71;62.51
65659;BME280;60181;53.258;6.932;2024-01-15T19:11:46;100269.55;;;13.71;62.54
65659;BME280;60181;53.258;6.932;2024-01-15T19:15:58;100274.65;;;13.71;62.55
65659;BME280;60181;53.258;6.932;2024-01-15T19:20:10;100282.79;;;13.71;62.58
65659;BME280;60181;53.258;6.932;2024-01-15T19:24:22;100291.36;;;13.71;62.62
65659;BME280;60181;53.258;6.932;2024-01-15T19:28:34;100299.08;;;13.71;62.51
65659;BME280;60181;53.258;6.932;2024-01-15T19:32:46;100304.77;;;13.73;62.37
65659;BME280;60181;53.258;6.932;2024-01-15T19:36:58;100309.88;;;13.74;62.58
65659;BME280;60181;53.258;6.932;2024-01-15T19:41:10;100314.73;;;13.74;62.64
65659;BME280;60181;53.258;6.932;2024-01-15T19:45:22;100318.52;;;13.74;62.72
65659;BME280;60181;53.258;6.932;2024-01-15T19:49:34;100324.44;;;13.74;62.74
65659;BME280;60181;53.258;6.932;2024-01-15T19:53:46;100330.63;;;13.74;62.75
65659;BME280;60181;53.258;6.932;2024-01-15T19:57:58;100336.64;;;13.73;62.75
65659;BME280;60181;53.258;6.932;2024-01-15T20:02:10;100344.70;;;13.73;62.72
65659;BME280;60181;53.258;6.932;2024-01-15T20:06:22;100352.03;;;13.73;62.79
65659;BME280;60181;53.258;6.932;2024-01-15T20:10:34;100359.20;;;13.73;62.80
65659;BME280;60181;53.258;6.932;2024-01-15T20:14:46;100368.42;;;13.73;62.79
65659;BME280;60181;53.258;6.932;2024-01-15T20:18:58;100378.46;;;13.73;62.82
65659;BME280;60181;53.258;6.932;2024-01-15T20:23:10;100386.36;;;13.73;62.85
65659;BME280;60181;53.258;6.932;2024-01-15T20:27:22;100393.94;;;13.73;62.80
65659;BME280;60181;53.258;6.932;2024-01-15T20:31:34;100400.19;;;13.73;62.79
65659;BME280;60181;53.258;6.932;2024-01-15T20:35:46;100406.20;;;13.73;62.77
65659;BME280;60181;53.258;6.932;2024-01-15T20:39:58;100411.72;;;13.73;62.79
65659;BME280;60181;53.258;6.932;2024-01-15T20:44:10;100417.55;;;13.73;62.74
65659;BME280;60181;53.258;6.932;2024-01-15T20:48:22;100422.66;;;13.73;62.76
65659;BME280;60181;53.258;6.932;2024-01-15T20:52:34;100427.92;;;13.73;62.78
65659;BME280;60181;53.258;6.932;2024-01-15T20:56:46;100430.89;;;13.73;62.77
65659;BME280;60181;53.258;6.932;2024-01-15T21:00:58;100433.83;;;13.73;62.78
65659;BME280;60181;53.258;6.932;2024-01-15T21:05:10;100438.28;;;13.73;62.76
65659;BME280;60181;53.258;6.932;2024-01-15T21:09:22;100444.53;;;13.73;62.75
65659;BME280;60181;53.258;6.932;2024-01-15T21:13:34;100449.63;;;13.73;62.71
65659;BME280;60181;53.258;6.932;2024-01-15T21:17:46;100455.65;;;13.72;62.71
65659;BME280;60181;53.258;6.932;2024-01-15T21:21:58;100462.33;;;13.75;62.91
65659;BME280;60181;53.258;6.932;2024-01-15T21:26:10;100467.89;;;13.81;63.02
65659;BME280;60181;53.258;6.932;2024-01-15T21:30:22;100471.66;;;13.87;62.72
65659;BME280;60181;53.258;6.932;2024-01-15T21:34:34;100468.86;;;13.93;62.48
65659;BME280;60181;53.258;6.932;2024-01-15T21:38:46;100466.58;;;13.98;62.36
65659;BME280;60181;53.258;6.932;2024-01-15T21:42:58;100467.36;;;14.03;62.25
65659;BME280;60181;53.258;6.932;2024-01-15T21:47:10;100469.53;;;14.06;62.18
65659;BME280;60181;53.258;6.932;2024-01-15T21:51:22;100477.39;;;14.09;62.18
65659;BME280;60181;53.258;6.932;2024-01-15T21:55:34;100486.30;;;14.12;61.88
65659;BME280;60181;53.258;6.932;2024-01-15T21:59:46;100491.93;;;14.13;62.04
65659;BME280;60181;53.258;6.932;2024-01-15T22:03:58;100499.75;;;14.15;61.86
65659;BME280;60181;53.258;6.932;2024-01-15T22:08:10;100506.76;;;14.16;61.78